sensor_id;sensor_type;location;lat;lon;timestamp;temperature;humidity
12720;DHT22;6424;48.520;11.228;2023-01-23T00:01:57;-1.60;99.90
12720;DHT22;6424;48.520;11.228;2023-01-23T00:04:38;-1.60;99.90
12720;DHT22;6424;48.520;11.228;2023-01-23T00:07:19;-1.60;99.90
12720;DHT22;6424;48.520;11.228;2023-01-23T00:09:59;-1.60;99.90
12720;DHT22;6424;48.520;11.228;2023-01-23T00:12:41;-1.60;99.90
12720;DHT22;6424;48.520;11.228;2023-01-23T00:15:23;-1.60;99.90
12720;DHT22;6424;48.520;11.228;2023-01-23T00:18:03;-1.50;99.90
12720;DHT22;6424;48.520;11.228;2023-01-23T00:20:44;-1.50;99.90
12720;DHT22;6424;48.520;11.228;2023-01-23T00:23:10;-1.50;99.90
12720;DHT22;6424;48.520;11.228;2023-01-23T00:25:51;-1.50;99.90
12720;DHT22;6424;48.520;11.228;2023-01-23T00:28:33;-1.50;99.90
12720;DHT22;6424;48.520;11.228;2023-01-23T00:31:19;-1.50;99.90
12720;DHT22;6424;48.520;11.228;2023-01-23T00:34:05;-1.50;99.90
12720;DHT22;6424;48.520;11.228;2023-01-23T00:36:46;-1.50;99.90
12720;DHT22;6424;48.520;11.228;2023-01-23T00:39:16;-1.50;99.90
12720;DHT22;6424;48.520;11.228;2023-01-23T00:41:42;-1.50;99.90
12720;DHT22;6424;48.520;11.228;2023-01-23T00:44:23;-1.60;99.90
12720;DHT22;6424;48.520;11.228;2023-01-23T00:47:04;-1.50;99.90
12720;DHT22;6424;48.520;11.228;2023-01-23T00:49:45;-1.60;99.90
12720;DHT22;6424;48.520;11.228;2023-01-23T00:52:26;-1.60;99.90
12720;DHT22;6424;48.520;11.228;2023-01-23T00:55:08;-1.60;99.90
12720;DHT22;6424;48.520;11.228;2023-01-23T00:57:34;-1.70;99.90
12720;DHT22;6424;48.520;11.228;2023-01-23T01:00:15;-1.70;99.90
12720;DHT22;6424;48.520;11.228;2023-01-23T01:02:56;-1.60;99.90
12720;DHT22;6424;48.520;11.228;2023-01-23T01:05:37;-1.60;99.90
12720;DHT22;6424;48.520;11.228;2023-01-23T01:08:18;-1.60;99.90
12720;DHT22;6424;48.520;11.228;2023-01-23T01:10:59;-1.60;99.90
12720;DHT22;6424;48.520;11.228;2023-01-23T01:13:40;-1.60;99.90
12720;DHT22;6424;48.520;11.228;2023-01-23T01:16:21;-1.60;99.90
12720;DHT22;6424;48.520;11.228;2023-01-23T01:19:03;-1.60;99.90
12720;DHT22;6424;48.520;11.228;2023-01-23T01:21:44;-1.70;99.90
12720;DHT22;6424;48.520;11.228;2023-01-23T01:24:25;-1.80;99.90
12720;DHT22;6424;48.520;11.228;2023-01-23T01:27:06;-1.90;99.90
12720;DHT22;6424;48.520;11.228;2023-01-23T01:29:47;-1.90;99.90
12720;DHT22;6424;48.520;11.228;2023-01-23T01:32:13;-2.00;99.90
12720;DHT22;6424;48.520;11.228;2023-01-23T01:34:53;-2.10;99.90
12720;DHT22;6424;48.520;11.228;2023-01-23T01:37:35;-2.20;99.90
12720;DHT22;6424;48.520;11.228;2023-01-23T01:40:21;-2.20;99.90
12720;DHT22;6424;48.520;11.228;2023-01-23T01:43:14;-2.30;99.90
12720;DHT22;6424;48.520;11.228;2023-01-23T01:54:16;-2.30;99.90
12720;DHT22;6424;48.520;11.228;2023-01-23T02:00:16;-2.10;99.90
12720;DHT22;6424;48.520;11.228;2023-01-23T02:02:58;-2.10;99.90
12720;DHT22;6424;48.520;11.228;2023-01-23T02:05:45;-2.10;99.90
12720;DHT22;6424;48.520;11.228;2023-01-23T02:11:13;-2.00;99.90
12720;DHT22;6424;48.520;11.228;2023-01-23T02:13:56;-1.90;99.90
12720;DHT22;6424;48.520;11.228;2023-01-23T02:16:37;-2.00;99.90
12720;DHT22;6424;48.520;11.228;2023-01-23T02:22:50;-2.00;99.90
12720;DHT22;6424;48.520;11.228;2023-01-23T02:28:39;-2.10;99.90
12720;DHT22;6424;48.520;11.228;2023-01-23T02:31:21;-2.10;99.90
12720;DHT22;6424;48.520;11.228;2023-01-23T02:34:03;-2.10;99.90
12720;DHT22;6424;48.520;11.228;2023-01-23T02:36:46;-2.20;99.90
12720;DHT22;6424;48.520;11.228;2023-01-23T02:39:27;-2.20;99.90
12720;DHT22;6424;48.520;11.228;2023-01-23T02:42:08;-2.20;99.90
12720;DHT22;6424;48.520;11.228;2023-01-23T02:44:49;-2.30;99.90
12720;DHT22;6424;48.520;11.228;2023-01-23T02:47:33;-2.30;99.90
12720;DHT22;6424;48.520;11.228;2023-01-23T02:50:14;-2.40;99.90
12720;DHT22;6424;48.520;11.228;2023-01-23T02:52:55;-2.40;99.90
12720;DHT22;6424;48.520;11.228;2023-01-23T02:55:37;-2.40;99.90
12720;DHT22;6424;48.520;11.228;2023-01-23T02:58:21;-2.40;99.90
12720;DHT22;6424;48.520;11.228;2023-01-23T03:01:21;-2.40;99.90
12720;DHT22;6424;48.520;11.228;2023-01-23T03:04:04;-2.40;99.90
12720;DHT22;6424;48.520;11.228;2023-01-23T03:06:35;-2.50;99.90
12720;DHT22;6424;48.520;11.228;2023-01-23T03:09:17;-2.50;99.90
12720;DHT22;6424;48.520;11.228;2023-01-23T03:11:58;-2.60;99.90
12720;DHT22;6424;48.520;11.228;2023-01-23T03:14:40;-2.60;99.90
12720;DHT22;6424;48.520;11.228;2023-01-23T03:17:21;-2.70;99.90
12720;DHT22;6424;48.520;11.228;2023-01-23T03:20:02;-2.70;99.90
12720;DHT22;6424;48.520;11.228;2023-01-23T03:22:45;-2.70;99.90
12720;DHT22;6424;48.520;11.228;2023-01-23T03:25:26;-2.70;99.90
12720;DHT22;6424;48.520;11.228;2023-01-23T03:28:07;-2.70;99.90
12720;DHT22;6424;48.520;11.228;2023-01-23T03:31:08;-2.60;99.90
12720;DHT22;6424;48.520;11.228;2023-01-23T03:33:49;-2.60;99.90
12720;DHT22;6424;48.520;11.228;2023-01-23T03:36:30;-2.60;99.90
12720;DHT22;6424;48.520;11.228;2023-01-23T03:39:10;-2.50;99.90
12720;DHT22;6424;48.520;11.228;2023-01-23T03:42:10;-2.40;99.90
12720;DHT22;6424;48.520;11.228;2023-01-23T03:44:51;-2.40;99.90
12720;DHT22;6424;48.520;11.228;2023-01-23T03:47:32;-2.40;99.90
12720;DHT22;6424;48.520;11.228;2023-01-23T03:49:58;-2.40;99.90
12720;DHT22;6424;48.520;11.228;2023-01-23T03:52:39;-2.40;99.90
12720;DHT22;6424;48.520;11.228;2023-01-23T03:55:20;-2.40;99.90
12720;DHT22;6424;48.520;11.228;2023-01-23T03:58:01;-2.40;99.90
12720;DHT22;6424;48.520;11.228;2023-01-23T04:00:41;-2.40;99.90
12720;DHT22;6424;48.520;11.228;2023-01-23T04:03:22;-2.40;99.90
12720;DHT22;6424;48.520;11.228;2023-01-23T04:06:03;-2.40;99.90
12720;DHT22;6424;48.520;11.228;2023-01-23T04:08:29;-2.40;99.90
12720;DHT22;6424;48.520;11.228;2023-01-23T04:11:11;-2.40;99.90
12720;DHT22;6424;48.520;11.228;2023-01-23T04:13:38;-2.40;99.90
12720;DHT22;6424;48.520;11.228;2023-01-23T04:16:19;-2.40;99.90
12720;DHT22;6424;48.520;11.228;2023-01-23T04:19:01;-2.40;99.90
12720;DHT22;6424;48.520;11.228;2023-01-23T04:21:42;-2.40;99.90
12720;DHT22;6424;48.520;11.228;2023-01-23T04:24:23;-2.40;99.90
12720;DHT22;6424;48.520;11.228;2023-01-23T04:27:04;-2.40;99.90
12720;DHT22;6424;48.520;11.228;2023-01-23T04:29:44;-2.40;99.90
12720;DHT22;6424;48.520;11.228;2023-01-23T04:32:27;-2.40;99.90
12720;DHT22;6424;48.520;11.228;2023-01-23T04:35:08;-2.30;99.90
12720;DHT22;6424;48.520;11.228;2023-01-23T04:37:34;-2.40;99.90
12720;DHT22;6424;48.520;11.228;2023-01-23T04:40:14;-2.30;99.90
12720;DHT22;6424;48.520;11.228;2023-01-23T04:42:55;-2.30;99.90
12720;DHT22;6424;48.520;11.228;2023-01-23T04:45:36;-2.40;99.90
12720;DHT22;6424;48.520;11.228;2023-01-23T04:48:17;-2.30;99.90
12720;DHT22;6424;48.520;11.228;2023-01-23T04:50:58;-2.30;99.90
12720;DHT22;6424;48.520;11.228;2023-01-23T04:53:38;-2.30;99.90
12720;DHT22;6424;48.520;11.228;2023-01-23T04:56:19;-2.30;99.90
12720;DHT22;6424;48.520;11.228;2023-01-23T04:58:45;-2.20;99.90
12720;DHT22;6424;48.520;11.228;2023-01-23T05:01:26;-2.20;99.90
12720;DHT22;6424;48.520;11.228;2023-01-23T05:04:07;-2.10;99.90
12720;DHT22;6424;48.520;11.228;2023-01-23T05:06:48;-2.00;99.90
12720;DHT22;6424;48.520;11.228;2023-01-23T05:09:28;-2.00;99.90
12720;DHT22;6424;48.520;11.228;2023-01-23T05:12:09;-1.90;99.90
12720;DHT22;6424;48.520;11.228;2023-01-23T05:14:35;-1.90;99.90
12720;DHT22;6424;48.520;11.228;2023-01-23T05:17:16;-1.90;99.90
12720;DHT22;6424;48.520;11.228;2023-01-23T05:19:56;-1.80;99.90
12720;DHT22;6424;48.520;11.228;2023-01-23T05:22:38;-1.80;99.90
12720;DHT22;6424;48.520;11.228;2023-01-23T05:25:25;-1.80;99.90
12720;DHT22;6424;48.520;11.228;2023-01-23T05:28:06;-1.80;99.90
12720;DHT22;6424;48.520;11.228;2023-01-23T05:30:47;-1.70;99.90
12720;DHT22;6424;48.520;11.228;2023-01-23T05:33:27;-1.80;99.90
12720;DHT22;6424;48.520;11.228;2023-01-23T05:36:08;-1.80;99.90
12720;DHT22;6424;48.520;11.228;2023-01-23T05:38:49;-1.80;99.90
12720;DHT22;6424;48.520;11.228;2023-01-23T05:41:30;-1.80;99.90
12720;DHT22;6424;48.520;11.228;2023-01-23T05:44:10;-1.80;99.90
12720;DHT22;6424;48.520;11.228;2023-01-23T05:46:51;-1.80;99.90
12720;DHT22;6424;48.520;11.228;2023-01-23T05:49:32;-1.70;99.90
12720;DHT22;6424;48.520;11.228;2023-01-23T05:52:13;-1.70;99.90
12720;DHT22;6424;48.520;11.228;2023-01-23T05:54:53;-1.70;99.90
12720;DHT22;6424;48.520;11.228;2023-01-23T05:57:35;-1.80;99.90
12720;DHT22;6424;48.520;11.228;2023-01-23T06:00:16;-1.80;99.90
12720;DHT22;6424;48.520;11.228;2023-01-23T06:02:57;-1.80;99.90
12720;DHT22;6424;48.520;11.228;2023-01-23T06:05:39;-1.80;99.90
12720;DHT22;6424;48.520;11.228;2023-01-23T06:08:20;-1.80;99.90
12720;DHT22;6424;48.520;11.228;2023-01-23T06:11:01;-1.80;99.90
12720;DHT22;6424;48.520;11.228;2023-01-23T06:13:42;-1.80;99.90
12720;DHT22;6424;48.520;11.228;2023-01-23T06:16:07;-1.80;99.90
12720;DHT22;6424;48.520;11.228;2023-01-23T06:18:49;-1.80;99.90
12720;DHT22;6424;48.520;11.228;2023-01-23T06:21:30;-1.70;99.90
12720;DHT22;6424;48.520;11.228;2023-01-23T06:24:10;-1.80;99.90
12720;DHT22;6424;48.520;11.228;2023-01-23T06:26:51;-1.70;99.90
12720;DHT22;6424;48.520;11.228;2023-01-23T06:29:33;-1.60;99.90
12720;DHT22;6424;48.520;11.228;2023-01-23T06:32:14;-1.60;99.90
12720;DHT22;6424;48.520;11.228;2023-01-23T06:34:55;-1.60;99.90
12720;DHT22;6424;48.520;11.228;2023-01-23T06:37:21;-1.70;99.90
12720;DHT22;6424;48.520;11.228;2023-01-23T06:40:01;-1.70;99.90
12720;DHT22;6424;48.520;11.228;2023-01-23T06:42:42;-1.80;99.90
12720;DHT22;6424;48.520;11.228;2023-01-23T06:45:09;-1.80;99.90
12720;DHT22;6424;48.520;11.228;2023-01-23T06:47:51;-1.80;99.90
12720;DHT22;6424;48.520;11.228;2023-01-23T06:50:32;-1.80;99.90
12720;DHT22;6424;48.520;11.228;2023-01-23T06:53:14;-1.70;99.90
12720;DHT22;6424;48.520;11.228;2023-01-23T06:55:59;-1.70;99.90
12720;DHT22;6424;48.520;11.228;2023-01-23T06:58:43;-1.70;99.90
12720;DHT22;6424;48.520;11.228;2023-01-23T07:01:24;-1.60;99.90
12720;DHT22;6424;48.520;11.228;2023-01-23T07:04:07;-1.60;99.90
12720;DHT22;6424;48.520;11.228;2023-01-23T07:06:51;-1.60;99.90
12720;DHT22;6424;48.520;11.228;2023-01-23T07:09:31;-1.60;99.90
12720;DHT22;6424;48.520;11.228;2023-01-23T07:12:12;-1.60;99.90
12720;DHT22;6424;48.520;11.228;2023-01-23T07:14:53;-1.60;99.90
12720;DHT22;6424;48.520;11.228;2023-01-23T07:17:34;-1.60;99.90
12720;DHT22;6424;48.520;11.228;2023-01-23T07:20:15;-1.60;99.90
12720;DHT22;6424;48.520;11.228;2023-01-23T07:22:56;-1.60;99.90
12720;DHT22;6424;48.520;11.228;2023-01-23T07:25:37;-1.60;99.90
12720;DHT22;6424;48.520;11.228;2023-01-23T07:28:18;-1.60;99.90
12720;DHT22;6424;48.520;11.228;2023-01-23T07:30:59;-1.50;99.90
12720;DHT22;6424;48.520;11.228;2023-01-23T07:33:40;-1.50;99.90
12720;DHT22;6424;48.520;11.228;2023-01-23T07:36:20;-1.50;99.90
12720;DHT22;6424;48.520;11.228;2023-01-23T07:39:01;-1.50;99.90
12720;DHT22;6424;48.520;11.228;2023-01-23T07:41:27;-1.40;99.90
12720;DHT22;6424;48.520;11.228;2023-01-23T07:43:53;-1.40;99.90
12720;DHT22;6424;48.520;11.228;2023-01-23T07:46:33;-1.30;99.90
12720;DHT22;6424;48.520;11.228;2023-01-23T07:48:59;-1.20;99.90
12720;DHT22;6424;48.520;11.228;2023-01-23T07:51:40;-1.20;99.90
12720;DHT22;6424;48.520;11.228;2023-01-23T07:54:21;-1.20;99.90
12720;DHT22;6424;48.520;11.228;2023-01-23T07:57:02;-1.10;99.90
12720;DHT22;6424;48.520;11.228;2023-01-23T07:59:43;-1.10;99.90
12720;DHT22;6424;48.520;11.228;2023-01-23T08:02:23;-1.10;99.90
12720;DHT22;6424;48.520;11.228;2023-01-23T08:05:05;-1.20;99.90
12720;DHT22;6424;48.520;11.228;2023-01-23T08:07:46;-1.10;99.90
12720;DHT22;6424;48.520;11.228;2023-01-23T08:10:12;-1.10;99.90
12720;DHT22;6424;48.520;11.228;2023-01-23T08:12:52;-1.00;99.90
12720;DHT22;6424;48.520;11.228;2023-01-23T08:15:33;-1.00;99.90
12720;DHT22;6424;48.520;11.228;2023-01-23T08:18:14;-1.00;99.90
12720;DHT22;6424;48.520;11.228;2023-01-23T08:20:56;-1.00;99.90
12720;DHT22;6424;48.520;11.228;2023-01-23T08:23:37;-1.00;99.90
12720;DHT22;6424;48.520;11.228;2023-01-23T08:26:05;-1.00;99.90
12720;DHT22;6424;48.520;11.228;2023-01-23T08:28:46;-0.90;99.90
12720;DHT22;6424;48.520;11.228;2023-01-23T08:31:27;-0.80;99.90
12720;DHT22;6424;48.520;11.228;2023-01-23T08:34:08;-0.80;99.90
12720;DHT22;6424;48.520;11.228;2023-01-23T08:36:49;-0.80;99.90
12720;DHT22;6424;48.520;11.228;2023-01-23T08:39:30;-0.70;99.90
12720;DHT22;6424;48.520;11.228;2023-01-23T08:42:11;-0.70;99.90
12720;DHT22;6424;48.520;11.228;2023-01-23T08:44:37;-0.70;99.90
12720;DHT22;6424;48.520;11.228;2023-01-23T08:47:18;-0.70;99.90
12720;DHT22;6424;48.520;11.228;2023-01-23T08:49:59;-0.80;99.90
12720;DHT22;6424;48.520;11.228;2023-01-23T08:52:40;-0.70;99.90
12720;DHT22;6424;48.520;11.228;2023-01-23T08:55:20;-0.70;99.90
12720;DHT22;6424;48.520;11.228;2023-01-23T08:58:01;-0.70;99.90
12720;DHT22;6424;48.520;11.228;2023-01-23T09:00:27;-0.70;99.90
12720;DHT22;6424;48.520;11.228;2023-01-23T09:03:08;-0.60;99.90
12720;DHT22;6424;48.520;11.228;2023-01-23T09:05:49;-0.60;99.90
12720;DHT22;6424;48.520;11.228;2023-01-23T09:08:30;-0.50;99.90
12720;DHT22;6424;48.520;11.228;2023-01-23T09:11:12;-0.60;99.90
12720;DHT22;6424;48.520;11.228;2023-01-23T09:13:53;-0.50;99.90
12720;DHT22;6424;48.520;11.228;2023-01-23T09:16:33;-0.50;99.90
12720;DHT22;6424;48.520;11.228;2023-01-23T09:19:14;-0.50;99.90
12720;DHT22;6424;48.520;11.228;2023-01-23T09:21:55;-0.50;99.90
12720;DHT22;6424;48.520;11.228;2023-01-23T09:24:36;-0.50;99.90
12720;DHT22;6424;48.520;11.228;2023-01-23T09:27:18;-0.60;99.90
12720;DHT22;6424;48.520;11.228;2023-01-23T09:29:59;-0.50;99.90
12720;DHT22;6424;48.520;11.228;2023-01-23T09:32:39;-0.50;99.90
12720;DHT22;6424;48.520;11.228;2023-01-23T09:35:20;-0.40;99.90
12720;DHT22;6424;48.520;11.228;2023-01-23T09:38:03;-0.30;99.90
12720;DHT22;6424;48.520;11.228;2023-01-23T09:40:51;-0.30;99.90
12720;DHT22;6424;48.520;11.228;2023-01-23T09:46:29;-0.20;99.90
12720;DHT22;6424;48.520;11.228;2023-01-23T09:49:21;-0.20;99.90
12720;DHT22;6424;48.520;11.228;2023-01-23T09:54:42;-0.10;99.90
12720;DHT22;6424;48.520;11.228;2023-01-23T09:57:29;-0.20;99.90
12720;DHT22;6424;48.520;11.228;2023-01-23T10:02:59;-0.10;99.90
12720;DHT22;6424;48.520;11.228;2023-01-23T10:14:39;0.20;99.90
12720;DHT22;6424;48.520;11.228;2023-01-23T10:17:38;0.20;99.90
12720;DHT22;6424;48.520;11.228;2023-01-23T10:20:49;0.20;99.90
12720;DHT22;6424;48.520;11.228;2023-01-23T10:26:48;0.20;99.90
12720;DHT22;6424;48.520;11.228;2023-01-23T10:29:37;0.30;99.90
12720;DHT22;6424;48.520;11.228;2023-01-23T10:32:27;0.20;99.90
12720;DHT22;6424;48.520;11.228;2023-01-23T10:35:16;0.20;99.90
12720;DHT22;6424;48.520;11.228;2023-01-23T10:41:11;0.20;99.90
12720;DHT22;6424;48.520;11.228;2023-01-23T10:43:54;0.20;99.90
12720;DHT22;6424;48.520;11.228;2023-01-23T10:46:49;0.30;99.90
12720;DHT22;6424;48.520;11.228;2023-01-23T10:49:31;0.50;99.90
12720;DHT22;6424;48.520;11.228;2023-01-23T10:52:51;0.60;99.90
12720;DHT22;6424;48.520;11.228;2023-01-23T10:55:32;0.50;99.90
12720;DHT22;6424;48.520;11.228;2023-01-23T10:58:37;0.50;99.90
12720;DHT22;6424;48.520;11.228;2023-01-23T11:01:28;0.60;99.90
12720;DHT22;6424;48.520;11.228;2023-01-23T11:04:20;0.60;99.90
12720;DHT22;6424;48.520;11.228;2023-01-23T11:07:04;0.50;99.90
12720;DHT22;6424;48.520;11.228;2023-01-23T11:09:52;0.50;99.90
12720;DHT22;6424;48.520;11.228;2023-01-23T11:12:46;0.50;99.90
12720;DHT22;6424;48.520;11.228;2023-01-23T11:15:30;0.40;99.90
12720;DHT22;6424;48.520;11.228;2023-01-23T11:18:33;0.40;99.90
12720;DHT22;6424;48.520;11.228;2023-01-23T11:21:00;0.40;99.90
12720;DHT22;6424;48.520;11.228;2023-01-23T11:23:41;0.40;99.90
12720;DHT22;6424;48.520;11.228;2023-01-23T11:26:32;0.40;99.90
12720;DHT22;6424;48.520;11.228;2023-01-23T11:29:25;0.50;99.90
12720;DHT22;6424;48.520;11.228;2023-01-23T11:32:10;0.60;99.90
12720;DHT22;6424;48.520;11.228;2023-01-23T11:34:41;0.60;99.90
12720;DHT22;6424;48.520;11.228;2023-01-23T11:37:29;0.60;99.90
12720;DHT22;6424;48.520;11.228;2023-01-23T11:40:00;0.70;99.90
12720;DHT22;6424;48.520;11.228;2023-01-23T11:42:43;0.70;99.90
12720;DHT22;6424;48.520;11.228;2023-01-23T11:46:01;0.80;99.90
12720;DHT22;6424;48.520;11.228;2023-01-23T11:48:55;0.80;99.90
12720;DHT22;6424;48.520;11.228;2023-01-23T11:54:57;1.00;99.90
12720;DHT22;6424;48.520;11.228;2023-01-23T11:57:35;1.10;99.90
12720;DHT22;6424;48.520;11.228;2023-01-23T12:00:31;1.10;99.90
12720;DHT22;6424;48.520;11.228;2023-01-23T12:11:39;1.20;99.90
12720;DHT22;6424;48.520;11.228;2023-01-23T12:23:32;1.60;99.90
12720;DHT22;6424;48.520;11.228;2023-01-23T12:26:17;1.70;99.90
12720;DHT22;6424;48.520;11.228;2023-01-23T12:41:15;1.90;99.90
12720;DHT22;6424;48.520;11.228;2023-01-23T12:49:53;1.90;99.90
12720;DHT22;6424;48.520;11.228;2023-01-23T12:52:41;1.90;99.90
12720;DHT22;6424;48.520;11.228;2023-01-23T12:58:28;1.80;99.90
12720;DHT22;6424;48.520;11.228;2023-01-23T13:02:08;1.80;99.90
12720;DHT22;6424;48.520;11.228;2023-01-23T13:10:48;1.90;99.90
12720;DHT22;6424;48.520;11.228;2023-01-23T13:13:50;2.00;99.90
12720;DHT22;6424;48.520;11.228;2023-01-23T13:16:31;2.00;99.90
12720;DHT22;6424;48.520;11.228;2023-01-23T13:19:26;2.00;99.90
12720;DHT22;6424;48.520;11.228;2023-01-23T13:22:30;2.10;99.90
12720;DHT22;6424;48.520;11.228;2023-01-23T13:25:14;2.00;99.90
12720;DHT22;6424;48.520;11.228;2023-01-23T13:27:58;2.00;99.90
12720;DHT22;6424;48.520;11.228;2023-01-23T13:30:39;2.10;99.90
12720;DHT22;6424;48.520;11.228;2023-01-23T13:41:29;2.10;99.90
12720;DHT22;6424;48.520;11.228;2023-01-23T13:44:20;2.10;99.90
12720;DHT22;6424;48.520;11.228;2023-01-23T13:50:03;2.40;99.90
12720;DHT22;6424;48.520;11.228;2023-01-23T13:52:55;2.40;99.90
12720;DHT22;6424;48.520;11.228;2023-01-23T13:55:54;2.50;99.90
12720;DHT22;6424;48.520;11.228;2023-01-23T13:58:53;2.40;99.90
12720;DHT22;6424;48.520;11.228;2023-01-23T14:05:25;2.60;99.90
12720;DHT22;6424;48.520;11.228;2023-01-23T14:08:19;2.50;99.90
12720;DHT22;6424;48.520;11.228;2023-01-23T14:11:00;2.50;99.90
12720;DHT22;6424;48.520;11.228;2023-01-23T14:13:53;2.40;99.90
12720;DHT22;6424;48.520;11.228;2023-01-23T14:16:56;2.40;99.90
12720;DHT22;6424;48.520;11.228;2023-01-23T14:22:29;2.30;99.90
12720;DHT22;6424;48.520;11.228;2023-01-23T14:25:15;2.30;99.90
12720;DHT22;6424;48.520;11.228;2023-01-23T14:28:04;2.30;99.90
12720;DHT22;6424;48.520;11.228;2023-01-23T14:30:53;2.20;99.90
12720;DHT22;6424;48.520;11.228;2023-01-23T14:33:42;2.20;99.90
12720;DHT22;6424;48.520;11.228;2023-01-23T14:36:24;2.10;99.90
12720;DHT22;6424;48.520;11.228;2023-01-23T14:39:05;2.10;99.90
12720;DHT22;6424;48.520;11.228;2023-01-23T14:41:46;2.10;99.90
12720;DHT22;6424;48.520;11.228;2023-01-23T14:44:23;2.10;99.90
12720;DHT22;6424;48.520;11.228;2023-01-23T14:47:10;2.10;99.90
12720;DHT22;6424;48.520;11.228;2023-01-23T14:49:39;2.10;99.90
12720;DHT22;6424;48.520;11.228;2023-01-23T14:52:24;2.00;99.90
12720;DHT22;6424;48.520;11.228;2023-01-23T14:55:22;2.00;99.90
12720;DHT22;6424;48.520;11.228;2023-01-23T14:58:03;2.00;99.90
12720;DHT22;6424;48.520;11.228;2023-01-23T15:00:30;2.00;99.90
12720;DHT22;6424;48.520;11.228;2023-01-23T15:03:11;2.00;99.90
12720;DHT22;6424;48.520;11.228;2023-01-23T15:05:56;2.00;99.90
12720;DHT22;6424;48.520;11.228;2023-01-23T15:08:39;1.90;99.90
12720;DHT22;6424;48.520;11.228;2023-01-23T15:11:25;1.90;99.90
12720;DHT22;6424;48.520;11.228;2023-01-23T15:13:54;1.90;99.90
12720;DHT22;6424;48.520;11.228;2023-01-23T15:16:35;1.90;99.90
12720;DHT22;6424;48.520;11.228;2023-01-23T15:19:21;1.90;99.90
12720;DHT22;6424;48.520;11.228;2023-01-23T15:22:25;1.80;99.90
12720;DHT22;6424;48.520;11.228;2023-01-23T15:25:28;1.80;99.90
12720;DHT22;6424;48.520;11.228;2023-01-23T15:28:36;1.70;99.90
12720;DHT22;6424;48.520;11.228;2023-01-23T15:34:22;1.70;99.90
12720;DHT22;6424;48.520;11.228;2023-01-23T15:37:22;1.70;99.90
12720;DHT22;6424;48.520;11.228;2023-01-23T15:40:18;1.70;99.90
12720;DHT22;6424;48.520;11.228;2023-01-23T15:45:43;1.60;99.90
12720;DHT22;6424;48.520;11.228;2023-01-23T15:48:24;1.60;99.90
12720;DHT22;6424;48.520;11.228;2023-01-23T15:50:50;1.50;99.90
12720;DHT22;6424;48.520;11.228;2023-01-23T15:53:31;1.50;99.90
12720;DHT22;6424;48.520;11.228;2023-01-23T15:56:24;1.60;99.90
12720;DHT22;6424;48.520;11.228;2023-01-23T15:59:14;1.50;99.90
12720;DHT22;6424;48.520;11.228;2023-01-23T16:01:55;1.60;99.90
12720;DHT22;6424;48.520;11.228;2023-01-23T16:04:21;1.60;99.90
12720;DHT22;6424;48.520;11.228;2023-01-23T16:07:05;1.50;99.90
12720;DHT22;6424;48.520;11.228;2023-01-23T16:09:46;1.50;99.90
12720;DHT22;6424;48.520;11.228;2023-01-23T16:12:29;1.50;99.90
12720;DHT22;6424;48.520;11.228;2023-01-23T16:15:17;1.50;99.90
12720;DHT22;6424;48.520;11.228;2023-01-23T16:17:59;1.50;99.90
12720;DHT22;6424;48.520;11.228;2023-01-23T16:20:43;1.50;99.90
12720;DHT22;6424;48.520;11.228;2023-01-23T16:23:24;1.50;99.90
12720;DHT22;6424;48.520;11.228;2023-01-23T16:26:05;1.50;99.90
12720;DHT22;6424;48.520;11.228;2023-01-23T16:28:50;1.50;99.90
12720;DHT22;6424;48.520;11.228;2023-01-23T16:31:30;1.40;99.90
12720;DHT22;6424;48.520;11.228;2023-01-23T16:34:11;1.40;99.90
12720;DHT22;6424;48.520;11.228;2023-01-23T16:36:55;1.40;99.90
12720;DHT22;6424;48.520;11.228;2023-01-23T16:39:36;1.40;99.90
12720;DHT22;6424;48.520;11.228;2023-01-23T16:42:22;1.40;99.90
12720;DHT22;6424;48.520;11.228;2023-01-23T16:45:13;1.40;99.90
12720;DHT22;6424;48.520;11.228;2023-01-23T16:47:54;1.40;99.90
12720;DHT22;6424;48.520;11.228;2023-01-23T16:50:38;1.40;99.90
12720;DHT22;6424;48.520;11.228;2023-01-23T16:53:25;1.40;99.90
12720;DHT22;6424;48.520;11.228;2023-01-23T16:56:21;1.40;99.90
12720;DHT22;6424;48.520;11.228;2023-01-23T16:59:07;1.40;99.90
12720;DHT22;6424;48.520;11.228;2023-01-23T17:01:53;1.40;99.90
12720;DHT22;6424;48.520;11.228;2023-01-23T17:04:35;1.40;99.90
12720;DHT22;6424;48.520;11.228;2023-01-23T17:07:17;1.30;99.90
12720;DHT22;6424;48.520;11.228;2023-01-23T17:09:58;1.40;99.90
12720;DHT22;6424;48.520;11.228;2023-01-23T17:12:29;1.30;99.90
12720;DHT22;6424;48.520;11.228;2023-01-23T17:15:27;1.30;99.90
12720;DHT22;6424;48.520;11.228;2023-01-23T17:17:57;1.40;99.90
12720;DHT22;6424;48.520;11.228;2023-01-23T17:20:41;1.30;99.90
12720;DHT22;6424;48.520;11.228;2023-01-23T17:23:23;1.30;99.90
12720;DHT22;6424;48.520;11.228;2023-01-23T17:26:04;1.30;99.90
12720;DHT22;6424;48.520;11.228;2023-01-23T17:28:45;1.30;99.90
12720;DHT22;6424;48.520;11.228;2023-01-23T17:31:27;1.30;99.90
12720;DHT22;6424;48.520;11.228;2023-01-23T17:34:20;1.30;99.90
12720;DHT22;6424;48.520;11.228;2023-01-23T17:37:02;1.30;99.90
12720;DHT22;6424;48.520;11.228;2023-01-23T17:39:43;1.30;99.90
12720;DHT22;6424;48.520;11.228;2023-01-23T17:42:24;1.30;99.90
12720;DHT22;6424;48.520;11.228;2023-01-23T17:44:50;1.30;99.90
12720;DHT22;6424;48.520;11.228;2023-01-23T17:47:32;1.30;99.90
12720;DHT22;6424;48.520;11.228;2023-01-23T17:50:19;1.30;99.90
12720;DHT22;6424;48.520;11.228;2023-01-23T17:53:00;1.30;99.90
12720;DHT22;6424;48.520;11.228;2023-01-23T17:55:41;1.20;99.90
12720;DHT22;6424;48.520;11.228;2023-01-23T17:58:11;1.20;99.90
12720;DHT22;6424;48.520;11.228;2023-01-23T18:00:52;1.10;99.90
12720;DHT22;6424;48.520;11.228;2023-01-23T18:03:35;1.10;99.90
12720;DHT22;6424;48.520;11.228;2023-01-23T18:06:01;1.20;99.90
12720;DHT22;6424;48.520;11.228;2023-01-23T18:08:42;1.10;99.90
12720;DHT22;6424;48.520;11.228;2023-01-23T18:11:23;1.10;99.90
12720;DHT22;6424;48.520;11.228;2023-01-23T18:17:28;1.20;99.90
12720;DHT22;6424;48.520;11.228;2023-01-23T18:19:57;1.10;99.90
12720;DHT22;6424;48.520;11.228;2023-01-23T18:22:38;1.20;99.90
12720;DHT22;6424;48.520;11.228;2023-01-23T18:25:04;1.20;99.90
12720;DHT22;6424;48.520;11.228;2023-01-23T18:27:46;1.20;99.90
12720;DHT22;6424;48.520;11.228;2023-01-23T18:36:54;1.10;99.90
12720;DHT22;6424;48.520;11.228;2023-01-23T18:39:57;1.00;99.90
12720;DHT22;6424;48.520;11.228;2023-01-23T18:45:23;1.00;99.90
12720;DHT22;6424;48.520;11.228;2023-01-23T18:48:11;0.90;99.90
12720;DHT22;6424;48.520;11.228;2023-01-23T18:54:20;1.00;99.90
12720;DHT22;6424;48.520;11.228;2023-01-23T18:58:15;0.90;99.90
12720;DHT22;6424;48.520;11.228;2023-01-23T19:00:39;0.90;99.90
12720;DHT22;6424;48.520;11.228;2023-01-23T19:03:33;0.90;99.90
12720;DHT22;6424;48.520;11.228;2023-01-23T19:06:21;0.90;99.90
12720;DHT22;6424;48.520;11.228;2023-01-23T19:09:02;1.00;99.90
12720;DHT22;6424;48.520;11.228;2023-01-23T19:17:51;1.00;99.90
12720;DHT22;6424;48.520;11.228;2023-01-23T19:20:44;0.90;99.90
12720;DHT22;6424;48.520;11.228;2023-01-23T19:23:43;0.90;99.90
12720;DHT22;6424;48.520;11.228;2023-01-23T19:26:12;0.90;99.90
12720;DHT22;6424;48.520;11.228;2023-01-23T19:28:55;0.90;99.90
12720;DHT22;6424;48.520;11.228;2023-01-23T19:31:37;0.90;99.90
12720;DHT22;6424;48.520;11.228;2023-01-23T19:34:05;0.90;99.90